createdAt,value
2019-01-19T00:03:57.619Z,99.90
2019-01-19T00:06:51.804Z,99.90
2019-01-19T00:12:38.913Z,99.90
2019-01-19T00:15:13.134Z,99.90
2019-01-19T00:17:50.036Z,99.90
2019-01-19T00:23:37.805Z,99.90
2019-01-19T00:26:28.784Z,99.90
2019-01-19T00:29:16.557Z,99.90
2019-01-19T00:31:51.713Z,99.90
2019-01-19T00:34:45.549Z,99.90
2019-01-19T00:37:20.784Z,99.90
2019-01-19T00:43:01.060Z,99.90
2019-01-19T00:45:54.080Z,99.90
2019-01-19T00:48:46.192Z,99.90
2019-01-19T00:51:27.180Z,99.90
2019-01-19T00:54:11.056Z,99.90
2019-01-19T00:56:51.888Z,99.90
2019-01-19T00:59:25.533Z,99.90
2019-01-19T01:05:14.803Z,99.90
2019-01-19T01:08:01.822Z,99.90
2019-01-19T01:10:45.104Z,99.90
2019-01-19T01:13:41.274Z,99.90
2019-01-19T01:19:12.338Z,99.90
2019-01-19T01:22:00.720Z,99.90
2019-01-19T01:24:42.702Z,99.90
2019-01-19T01:30:41.844Z,99.90
2019-01-19T01:33:16.404Z,99.90
2019-01-19T01:39:10.161Z,99.90
2019-01-19T01:44:57.249Z,99.90
2019-01-19T01:50:41.142Z,99.90
2019-01-19T01:53:20.820Z,99.90
2019-01-19T01:55:54.492Z,99.90
2019-01-19T01:58:28.192Z,99.90
2019-01-19T02:01:06.273Z,99.90
2019-01-19T02:03:54.917Z,99.90
2019-01-19T02:06:50.931Z,99.90
2019-01-19T02:09:33.835Z,99.90
2019-01-19T02:12:30.300Z,99.90
2019-01-19T02:21:32.141Z,99.90
2019-01-19T02:24:11.097Z,99.90
2019-01-19T02:29:56.782Z,99.90
2019-01-19T02:32:47.970Z,99.90
2019-01-19T02:35:27.721Z,99.90
2019-01-19T02:41:10.032Z,99.90
2019-01-19T02:43:50.992Z,99.90
2019-01-19T02:49:35.966Z,99.90
2019-01-19T02:55:24.930Z,99.90
2019-01-19T03:04:06.174Z,99.90
2019-01-19T03:16:27.607Z,99.90
2019-01-19T03:22:25.296Z,99.90
2019-01-19T03:25:09.227Z,99.90
2019-01-19T03:27:57.522Z,99.90
2019-01-19T03:33:37.511Z,99.90
2019-01-19T03:36:38.394Z,99.90
2019-01-19T03:39:14.758Z,99.90
2019-01-19T03:41:49.955Z,99.90
2019-01-19T03:44:30.706Z,99.90
2019-01-19T03:47:09.700Z,99.90
2019-01-19T03:52:59.903Z,99.90
2019-01-19T03:55:57.397Z,99.90
2019-01-19T04:01:50.505Z,99.90
2019-01-19T04:04:42.494Z,99.90
2019-01-19T04:10:31.712Z,99.90
2019-01-19T04:13:06.169Z,99.90
2019-01-19T04:16:10.323Z,99.90
2019-01-19T04:18:57.336Z,99.90
2019-01-19T04:21:43.110Z,99.90
2019-01-19T04:25:07.138Z,99.90
2019-01-19T04:27:40.847Z,99.90
2019-01-19T04:30:14.694Z,99.90
2019-01-19T04:32:48.461Z,99.90
2019-01-19T04:35:23.090Z,99.90
2019-01-19T04:37:56.781Z,99.90
2019-01-19T04:40:30.597Z,99.90
2019-01-19T04:43:04.299Z,99.90
2019-01-19T04:45:38.102Z,99.90
2019-01-19T04:48:11.765Z,99.90
2019-01-19T04:50:45.529Z,99.90
2019-01-19T04:53:19.247Z,99.90
2019-01-19T04:55:53.033Z,99.90
2019-01-19T04:58:27.642Z,99.90
2019-01-19T05:01:01.352Z,99.90
2019-01-19T05:03:35.082Z,99.90
2019-01-19T05:06:12.559Z,99.90
2019-01-19T05:08:42.457Z,99.90
2019-01-19T05:11:16.965Z,99.90
2019-01-19T05:13:50.738Z,99.90
2019-01-19T05:16:24.548Z,99.90
2019-01-19T05:18:59.228Z,99.90
2019-01-19T05:21:32.912Z,99.90
2019-01-19T05:24:06.768Z,99.90
2019-01-19T05:26:41.461Z,99.90
2019-01-19T05:29:15.275Z,99.90
2019-01-19T05:31:49.130Z,99.90
2019-01-19T05:34:22.889Z,99.90
2019-01-19T05:36:56.602Z,99.90
2019-01-19T05:39:30.272Z,99.90
2019-01-19T05:42:03.981Z,99.90
2019-01-19T05:44:37.805Z,99.90
2019-01-19T05:47:11.569Z,99.90
2019-01-19T05:49:45.299Z,99.90
2019-01-19T05:52:19.792Z,99.90
2019-01-19T05:54:53.557Z,99.90
2019-01-19T05:57:27.241Z,99.90
2019-01-19T06:00:00.851Z,99.90
2019-01-19T06:02:35.360Z,99.90
2019-01-19T06:05:09.074Z,99.90
2019-01-19T06:07:43.709Z,99.90
2019-01-19T06:10:17.407Z,99.90
2019-01-19T06:12:51.117Z,99.90
2019-01-19T06:15:25.008Z,99.90
2019-01-19T06:17:58.825Z,99.90
2019-01-19T06:20:33.371Z,99.90
2019-01-19T06:23:07.024Z,99.90
2019-01-19T06:25:40.756Z,99.90
2019-01-19T06:28:14.586Z,99.90
2019-01-19T06:30:48.322Z,99.90
2019-01-19T06:33:22.149Z,99.90
2019-01-19T06:35:56.647Z,99.90
2019-01-19T06:38:30.662Z,99.90
2019-01-19T06:41:05.386Z,99.90
2019-01-19T06:43:39.230Z,99.90
2019-01-19T06:46:12.985Z,99.90
2019-01-19T06:48:47.733Z,99.90
2019-01-19T06:51:21.387Z,99.90
2019-01-19T06:54:01.576Z,99.90
2019-01-19T06:56:29.445Z,99.90
2019-01-19T06:59:04.164Z,99.90
2019-01-19T07:01:37.866Z,99.90
2019-01-19T07:04:11.908Z,99.90
2019-01-19T07:06:46.436Z,99.90
2019-01-19T07:09:20.144Z,99.90
2019-01-19T07:11:54.039Z,99.90
2019-01-19T07:14:27.768Z,99.90
2019-01-19T07:17:01.539Z,99.90
2019-01-19T07:19:35.530Z,99.90
2019-01-19T07:22:09.452Z,99.90
2019-01-19T07:24:43.991Z,99.90
2019-01-19T07:27:17.910Z,99.90
2019-01-19T07:29:51.846Z,99.90
2019-01-19T07:32:25.799Z,99.90
2019-01-19T07:34:59.671Z,99.90
2019-01-19T07:37:33.303Z,99.90
2019-01-19T07:40:10.601Z,99.90
2019-01-19T07:42:44.436Z,99.90
2019-01-19T07:45:19.303Z,99.90
2019-01-19T07:47:53.129Z,99.90
2019-01-19T07:50:27.575Z,99.90
2019-01-19T07:53:01.512Z,99.90
2019-01-19T07:55:35.727Z,99.90
2019-01-19T08:23:08.542Z,99.90
2019-01-19T08:33:16.982Z,99.90
2019-01-19T08:35:50.710Z,99.90
2019-01-19T08:38:24.474Z,99.90
2019-01-19T08:40:58.957Z,99.90
2019-01-19T08:43:32.680Z,99.90
2019-01-19T08:46:06.398Z,99.90
2019-01-19T08:48:40.332Z,99.90
2019-01-19T08:51:14.305Z,99.90
2019-01-19T08:53:48.358Z,99.90
2019-01-19T08:56:22.952Z,99.90
2019-01-19T08:58:56.824Z,99.90
2019-01-19T09:01:30.585Z,99.90
2019-01-19T09:04:04.481Z,99.90
2019-01-19T09:06:38.994Z,99.90
2019-01-19T09:09:12.721Z,99.90
2019-01-19T09:11:46.477Z,99.90
2019-01-19T09:14:20.324Z,99.90
2019-01-19T09:16:54.953Z,99.90
2019-01-19T09:19:29.459Z,99.90
2019-01-19T09:22:03.219Z,99.90
2019-01-19T09:24:37.874Z,99.90
2019-01-19T09:27:12.519Z,99.90
2019-01-19T09:29:47.149Z,99.90
2019-01-19T09:32:20.861Z,99.90
2019-01-19T09:34:54.574Z,99.90
2019-01-19T09:37:28.288Z,99.90
2019-01-19T09:40:02.061Z,99.90
2019-01-19T09:42:35.737Z,99.90
2019-01-19T09:45:09.578Z,99.90
2019-01-19T09:47:43.242Z,99.90
2019-01-19T09:50:17.122Z,99.90
2019-01-19T09:52:50.758Z,99.90
2019-01-19T09:55:24.480Z,99.90
2019-01-19T09:57:58.201Z,99.90
2019-01-19T10:00:36.645Z,99.90
2019-01-19T10:03:06.015Z,99.90
2019-01-19T10:05:40.904Z,99.90
2019-01-19T10:08:16.381Z,99.90
2019-01-19T10:10:50.124Z,99.90
2019-01-19T10:13:23.898Z,99.90
2019-01-19T10:15:57.598Z,99.90
2019-01-19T10:18:31.393Z,99.90
2019-01-19T10:21:05.121Z,99.90
2019-01-19T10:23:38.836Z,99.90
2019-01-19T10:26:12.488Z,99.90
2019-01-19T10:28:47.061Z,99.90
2019-01-19T10:31:20.873Z,99.90
2019-01-19T10:33:54.702Z,99.90
2019-01-19T10:36:28.491Z,99.90
2019-01-19T10:39:02.403Z,99.90
2019-01-19T10:41:40.977Z,99.90
2019-01-19T10:44:11.533Z,99.90
2019-01-19T10:46:46.032Z,99.90
2019-01-19T10:49:19.683Z,99.90
2019-01-19T10:51:59.330Z,99.90
2019-01-19T10:54:27.303Z,99.90
2019-01-19T10:57:01.890Z,99.90
2019-01-19T10:59:35.628Z,99.90
2019-01-19T11:02:10.126Z,99.90
2019-01-19T11:04:44.825Z,99.90
2019-01-19T11:07:18.723Z,99.90
2019-01-19T11:09:52.548Z,99.90
2019-01-19T11:12:27.080Z,99.90
2019-01-19T11:15:00.808Z,99.90
2019-01-19T11:17:34.560Z,99.90
2019-01-19T11:20:09.892Z,99.90
2019-01-19T11:22:43.754Z,99.90
2019-01-19T11:25:18.361Z,99.90
2019-01-19T11:27:52.106Z,99.90
2019-01-19T11:30:26.568Z,99.90
2019-01-19T11:33:00.392Z,99.90
2019-01-19T11:35:34.034Z,99.90
2019-01-19T11:38:11.873Z,99.90
2019-01-19T11:40:41.266Z,99.90
2019-01-19T11:43:14.899Z,99.90
2019-01-19T11:45:48.502Z,99.90
2019-01-19T11:48:22.235Z,99.90
2019-01-19T11:50:55.977Z,99.90
2019-01-19T11:53:29.896Z,99.90
2019-01-19T11:56:03.745Z,99.90
2019-01-19T11:58:37.584Z,99.90
2019-01-19T12:01:11.413Z,99.90
2019-01-19T12:03:45.137Z,99.90
2019-01-19T12:06:18.995Z,99.90
2019-01-19T12:08:52.801Z,99.90
2019-01-19T12:11:26.510Z,99.90
2019-01-19T12:14:01.003Z,99.90
2019-01-19T12:16:34.695Z,99.90
2019-01-19T12:19:09.335Z,99.90
2019-01-19T12:21:43.869Z,99.90
2019-01-19T12:24:17.656Z,99.90
2019-01-19T12:26:51.321Z,99.90
2019-01-19T12:29:25.055Z,99.90
2019-01-19T12:31:58.868Z,99.90
2019-01-19T12:34:32.842Z,99.90
2019-01-19T12:37:06.536Z,99.90
2019-01-19T12:39:40.171Z,99.90
2019-01-19T12:42:13.857Z,99.90
2019-01-19T12:44:47.590Z,99.90
2019-01-19T12:47:21.254Z,99.90
2019-01-19T12:49:54.905Z,99.90
2019-01-19T12:52:28.613Z,99.90
2019-01-19T12:55:03.108Z,99.90
2019-01-19T12:57:36.867Z,99.90
2019-01-19T13:00:17.593Z,99.90
2019-01-19T13:02:51.211Z,97.30
2019-01-19T13:05:31.152Z,96.40
2019-01-19T13:08:05.806Z,96.40
2019-01-19T13:10:40.369Z,96.20
2019-01-19T13:13:14.168Z,96.20
2019-01-19T13:16:24.337Z,96.70
2019-01-19T13:19:01.754Z,95.90
2019-01-19T13:24:51.057Z,94.80
2019-01-19T13:27:30.518Z,95.00
2019-01-19T13:33:11.916Z,91.40
2019-01-19T13:36:04.946Z,91.50
2019-01-19T13:41:49.852Z,90.80
2019-01-19T13:44:37.840Z,90.40
2019-01-19T13:47:35.019Z,88.70
2019-01-19T13:50:16.136Z,89.00
2019-01-19T13:56:14.039Z,88.70
2019-01-19T14:02:33.696Z,87.40
2019-01-19T14:05:25.818Z,88.50
2019-01-19T14:11:24.933Z,85.80
2019-01-19T14:14:11.910Z,84.60
2019-01-19T14:17:13.240Z,83.90
2019-01-19T14:19:53.490Z,81.40
2019-01-19T14:25:39.945Z,79.00
2019-01-19T14:28:25.225Z,77.60
2019-01-19T14:31:15.281Z,77.90
2019-01-19T14:34:01.593Z,79.10
2019-01-19T14:36:38.029Z,79.10
2019-01-19T14:39:21.340Z,76.70
2019-01-19T14:42:06.347Z,76.70
2019-01-19T14:48:08.933Z,79.00
2019-01-19T14:53:55.106Z,81.10
2019-01-19T14:59:38.186Z,80.10
2019-01-19T15:02:32.753Z,80.10
2019-01-19T15:05:15.012Z,80.70
2019-01-19T15:07:52.138Z,80.90
2019-01-19T15:10:34.196Z,81.20
2019-01-19T15:16:37.516Z,85.60
2019-01-19T15:19:23.852Z,84.00
2019-01-19T15:22:06.567Z,86.40
2019-01-19T15:24:58.736Z,86.40
2019-01-19T15:28:00.621Z,87.50
2019-01-19T15:30:53.686Z,87.50
2019-01-19T15:33:38.180Z,88.80
2019-01-19T15:39:36.519Z,90.40
2019-01-19T15:42:15.969Z,90.30
2019-01-19T15:48:03.296Z,91.30
2019-01-19T15:50:52.603Z,91.40
2019-01-19T15:53:31.682Z,91.40
2019-01-19T15:56:13.638Z,92.00
2019-01-19T15:59:04.843Z,92.90
2019-01-19T16:05:42.280Z,94.30
2019-01-19T16:11:41.352Z,96.30
2019-01-19T16:14:36.395Z,99.00
2019-01-19T16:17:23.491Z,97.00
2019-01-19T16:20:11.914Z,97.40
2019-01-19T16:22:52.012Z,98.30
2019-01-19T16:25:31.395Z,98.80
2019-01-19T16:31:17.393Z,99.90
2019-01-19T16:37:11.417Z,99.90
2019-01-19T16:40:13.633Z,99.90
2019-01-19T16:43:06.645Z,99.90
2019-01-19T16:45:52.871Z,99.90
2019-01-19T16:48:36.164Z,99.90
2019-01-19T16:51:31.519Z,99.90
2019-01-19T16:57:19.000Z,99.90
2019-01-19T17:03:04.154Z,99.90
2019-01-19T17:05:40.290Z,99.90
2019-01-19T17:08:25.600Z,99.90
2019-01-19T17:14:17.088Z,99.90
2019-01-19T17:17:02.812Z,99.90
2019-01-19T17:29:18.980Z,99.90
2019-01-19T17:32:00.088Z,99.90
2019-01-19T17:34:49.162Z,99.90
2019-01-19T17:37:25.450Z,99.90
2019-01-19T17:43:41.492Z,99.90
2019-01-19T17:58:17.412Z,99.90
2019-01-19T18:04:11.303Z,99.90
2019-01-19T18:07:01.213Z,99.90
2019-01-19T18:09:47.500Z,99.90
2019-01-19T18:12:23.278Z,99.90
2019-01-19T18:18:28.540Z,99.90
2019-01-19T18:21:05.949Z,99.90
2019-01-19T18:26:50.001Z,99.90
2019-01-19T18:29:30.936Z,99.90
2019-01-19T18:32:06.464Z,99.90
2019-01-19T18:34:50.517Z,99.90
2019-01-19T18:37:31.503Z,99.90
2019-01-19T18:40:32.544Z,99.90
2019-01-19T18:46:04.282Z,99.90
2019-01-19T18:48:50.411Z,99.90
2019-01-19T18:51:31.941Z,99.90
2019-01-19T18:54:29.657Z,99.90
2019-01-19T19:03:37.796Z,99.90
2019-01-19T19:06:16.324Z,99.90
2019-01-19T19:09:12.185Z,99.90
2019-01-19T19:11:54.345Z,99.90
2019-01-19T19:14:30.885Z,99.90
2019-01-19T19:17:22.856Z,99.90
2019-01-19T19:20:01.789Z,99.90
2019-01-19T19:22:36.168Z,99.90
2019-01-19T19:25:15.496Z,99.90
2019-01-19T19:31:18.729Z,99.90
2019-01-19T19:33:54.170Z,99.90
2019-01-19T19:36:51.005Z,99.90
2019-01-19T19:39:38.456Z,99.90
2019-01-19T19:42:19.601Z,99.90
2019-01-19T19:48:16.602Z,99.90
2019-01-19T19:51:15.558Z,99.90
2019-01-19T19:53:50.085Z,99.90
2019-01-19T19:56:23.879Z,99.90
2019-01-19T19:58:57.665Z,99.90
2019-01-19T20:01:31.417Z,99.90
2019-01-19T20:04:05.928Z,99.90
2019-01-19T20:06:39.648Z,99.90
2019-01-19T20:09:13.366Z,99.90
2019-01-19T20:11:47.022Z,99.90
2019-01-19T20:14:20.925Z,99.90
2019-01-19T20:16:54.517Z,99.90
2019-01-19T20:19:28.331Z,99.90
2019-01-19T20:22:02.012Z,99.90
2019-01-19T20:24:36.563Z,99.90
2019-01-19T20:27:10.287Z,99.90
2019-01-19T20:29:44.798Z,99.90
2019-01-19T20:32:19.408Z,99.90
2019-01-19T20:34:53.215Z,99.90
2019-01-19T20:37:27.064Z,99.90
2019-01-19T20:40:01.801Z,99.90
2019-01-19T20:42:35.537Z,99.90
2019-01-19T20:45:10.951Z,99.90
2019-01-19T20:47:44.806Z,99.90
2019-01-19T20:50:18.484Z,99.90
2019-01-19T20:52:52.850Z,99.90
2019-01-19T20:55:26.670Z,99.90
2019-01-19T20:58:00.302Z,99.90
2019-01-19T21:00:34.084Z,99.90
2019-01-19T21:03:07.913Z,99.90
2019-01-19T21:05:41.529Z,99.90
2019-01-19T21:08:15.265Z,99.90
2019-01-19T21:10:48.951Z,99.90
2019-01-19T21:13:22.580Z,99.90
2019-01-19T21:15:56.419Z,99.90
2019-01-19T21:18:30.293Z,99.90
2019-01-19T21:21:04.133Z,99.90
2019-01-19T21:23:37.881Z,99.90
2019-01-19T21:26:11.641Z,99.90
2019-01-19T21:28:45.416Z,99.90
2019-01-19T21:31:19.081Z,99.90
2019-01-19T21:33:52.913Z,99.90
2019-01-19T21:36:26.690Z,99.90
2019-01-19T21:39:00.587Z,99.90
2019-01-19T21:41:35.031Z,99.90
2019-01-19T21:44:09.521Z,99.90
2019-01-19T21:46:43.157Z,99.90
2019-01-19T21:49:17.650Z,99.90
2019-01-19T21:51:52.102Z,99.90
2019-01-19T21:54:25.802Z,99.90
2019-01-19T21:56:59.537Z,99.90
2019-01-19T21:59:34.102Z,99.90
2019-01-19T22:02:08.540Z,99.90
2019-01-19T22:04:42.193Z,99.90
2019-01-19T22:07:15.865Z,99.90
2019-01-19T22:09:49.565Z,99.90
2019-01-19T22:12:23.262Z,99.90
2019-01-19T22:14:56.957Z,99.90
2019-01-19T22:17:31.406Z,99.90
2019-01-19T22:20:05.122Z,99.90
2019-01-19T22:22:38.809Z,99.90
2019-01-19T22:25:12.464Z,99.90
2019-01-19T22:27:46.252Z,99.90
2019-01-19T22:30:20.028Z,99.90
2019-01-19T22:32:53.879Z,99.90
2019-01-19T22:36:07.489Z,99.90
2019-01-19T22:38:41.078Z,99.90
2019-01-19T22:41:14.726Z,99.90
2019-01-19T22:43:49.208Z,99.90
2019-01-19T22:46:22.909Z,99.90
2019-01-19T22:48:57.534Z,99.90
2019-01-19T22:51:31.248Z,99.90
2019-01-19T22:54:05.136Z,99.90
2019-01-19T22:56:39.017Z,99.90
2019-01-19T22:59:13.481Z,99.90
2019-01-19T23:01:47.169Z,99.90
2019-01-19T23:04:20.930Z,99.90
2019-01-19T23:06:56.053Z,99.90
2019-01-19T23:09:29.752Z,99.90
2019-01-19T23:12:03.612Z,99.90
2019-01-19T23:14:37.307Z,99.90
2019-01-19T23:17:11.871Z,99.90
2019-01-19T23:19:45.782Z,99.90
2019-01-19T23:22:19.591Z,99.90
2019-01-19T23:24:54.253Z,99.90
2019-01-19T23:27:28.158Z,99.90
2019-01-19T23:30:02.065Z,99.90
2019-01-19T23:32:35.840Z,99.90
2019-01-19T23:35:10.556Z,99.90
2019-01-19T23:37:44.249Z,99.90
2019-01-19T23:40:17.985Z,99.90
2019-01-19T23:42:51.789Z,99.90
2019-01-19T23:45:25.480Z,99.90
2019-01-19T23:47:59.297Z,99.90
2019-01-19T23:50:33.797Z,99.90
2019-01-19T23:53:08.296Z,99.90
2019-01-19T23:55:46.213Z,99.90
2019-01-19T23:58:20.841Z,99.90
